Archival Weather

Heathrow

London, United Kingdom (EGLL)

Report from: Tuesday, September 19, 2023 1:20 PM BST
Current time: Sunday, July 14, 2024 1:57 AM BST

Current weather – Weather history – Daily summaries
Weather forecast

Temperature18.0°C (64.4°F)
Dew point14.0°C (57.2°F)
Winds 21 kts (10.8 m/s, 24.2 mph) Southwest (230°)
Visibility6.2 mi. (10 km)
Clouds Ceiling: Overcast 1,700 ft. (518 m)
Altimeter29.68 in.Hg (1005 mB)
Relative humidity77 %
Density altitude854 ft. (260 m)
Remarks Fully automated report
No significant changes expected in the next two hours
Flight conditions Marginal Visual Meteorological Conditions
Raw dataEGLL 191220Z AUTO 23021KT 9999 OVC017 18/14 Q1005 NOSIG
An error has occurred. This application may no longer respond until reloaded. Reload 🗙